Terminal Aerodrome Forecast
Issued by NWS

Home | Current Version | Previous Version | Text Only | Print | Product List | Glossary On
Versions: 1 2 3 4 5 6 7 8 9 10 11 12 13 14 15 16 17 18 19 20 21 22 23 24 25 26 27 28 29 30
000
FTUS43 KDLH 210827 AAA
TAFHIB
TAF AMD
KHIB 210827Z 2108/2206 28008KT P6SM OVC008
     FM211000 28005KT 2SM BR SCT004 OVC006
     FM211200 27003KT 1/2SM FG SCT002 OVC004
     FM211400 21004KT 2SM BR SCT004 OVC006
     FM211700 20006KT P6SM SCT250=

USA.gov is the U.S. government's official web portal to all federal, state and local government web resources and services.